Time;durP1;ratioP1;P1;durP2;ratioP2;P2;SDS_P1;SDS_P2;PMS_P1;PMS_P2;Temp;Humidity;BMP_temperature;BMP_pressure;BME280_temperature;BME280_humidity;BME280_pressure;Samples;Min_cycle;Max_cycle;Signal;HPM_P1;HPM_P2
2020/12/25 00:02:00;;;;;;;12.25;8.55;;;;;;;;;;5088357;28;20475;-56
2020/12/25 00:04:26;;;;;;;9.90;6.25;;;;;;;;;;5086836;28;20020;-52
2020/12/25 00:06:52;;;;;;;11.15;7.82;;;;;;;;;;5091911;28;20425;-54
2020/12/25 00:09:17;;;;;;;14.73;10.18;;;;;;;;;;5087617;28;20017;-54
2020/12/25 00:11:43;;;;;;;14.48;9.77;;;;;;;;;;5091904;28;20012;-56
2020/12/25 00:14:09;;;;;;;14.65;9.45;;;;;;;;;;5092062;28;20023;-51
2020/12/25 00:16:34;;;;;;;11.10;7.97;;;;;;;;;;5091854;28;20020;-56
2020/12/25 00:18:59;;;;;;;13.93;9.45;;;;;;;;;;5086809;28;20043;-54
2020/12/25 00:21:25;;;;;;;10.40;8.07;;;;;;;;;;5088779;28;20031;-55
2020/12/25 00:23:50;;;;;;;11.88;7.65;;;;;;;;;;5093554;28;20563;-55
2020/12/25 00:26:22;;;;;;;10.27;7.45;;;;;;;;;;5095409;28;20019;-55
2020/12/25 00:28:47;;;;;;;10.50;6.30;;;;;;;;;;5092455;28;20100;-55
2020/12/25 00:31:20;;;;;;;10.95;7.82;;;;;;;;;;5095153;28;20103;-54
2020/12/25 00:33:45;;;;;;;9.63;6.88;;;;;;;;;;5095196;28;20383;-54
2020/12/25 00:36:11;;;;;;;11.70;7.83;;;;;;;;;;5095379;28;20020;-54
2020/12/25 00:38:36;;;;;;;9.90;7.57;;;;;;;;;;5091839;28;20039;-55
2020/12/25 00:41:01;;;;;;;11.55;7.97;;;;;;;;;;5095101;28;20047;-56
2020/12/25 00:43:26;;;;;;;8.57;6.77;;;;;;;;;;5095238;28;20099;-55
2020/12/25 00:45:51;;;;;;;10.77;6.90;;;;;;;;;;5105182;28;20045;-56
2020/12/25 00:48:16;;;;;;;10.57;7.37;;;;;;;;;;5093664;28;20012;-54
2020/12/25 00:50:42;;;;;;;7.93;5.65;;;;;;;;;;5093498;28;20031;-54
2020/12/25 00:53:07;;;;;;;10.88;7.68;;;;;;;;;;5094608;28;20066;-54
2020/12/25 00:55:33;;;;;;;6.20;4.40;;;;;;;;;;5095530;28;20419;-53
2020/12/25 00:57:58;;;;;;;7.20;5.75;;;;;;;;;;5094283;28;20085;-55
2020/12/25 01:00:23;;;;;;;9.57;6.43;;;;;;;;;;5091632;28;20477;-56
2020/12/25 01:02:48;;;;;;;7.47;5.67;;;;;;;;;;5093474;28;20034;-53
2020/12/25 01:05:13;;;;;;;8.52;5.90;;;;;;;;;;5094818;28;20030;-53
2020/12/25 01:07:39;;;;;;;6.73;4.33;;;;;;;;;;5089950;28;20017;-55
2020/12/25 01:10:04;;;;;;;6.93;5.27;;;;;;;;;;5089780;28;20424;-56
2020/12/25 01:12:29;;;;;;;7.23;5.40;;;;;;;;;;5095594;28;20392;-57
2020/12/25 01:14:54;;;;;;;6.87;5.27;;;;;;;;;;5094736;28;20478;-50
2020/12/25 01:17:20;;;;;;;8.17;6.03;;;;;;;;;;5087667;28;20012;-56
2020/12/25 01:19:45;;;;;;;11.10;7.00;;;;;;;;;;5084249;28;20031;-52
2020/12/25 01:22:10;;;;;;;9.27;6.50;;;;;;;;;;5087517;28;20065;-54
2020/12/25 01:24:35;;;;;;;8.90;6.10;;;;;;;;;;5094551;28;20047;-56
2020/12/25 01:27:00;;;;;;;8.73;5.87;;;;;;;;;;5094629;28;20023;-54
2020/12/25 01:29:26;;;;;;;10.80;7.00;;;;;;;;;;5085099;28;20028;-55
2020/12/25 01:31:51;;;;;;;10.10;6.97;;;;;;;;;;5091139;28;20051;-55
2020/12/25 01:34:16;;;;;;;9.13;6.40;;;;;;;;;;5093419;28;20374;-53
2020/12/25 01:36:41;;;;;;;8.53;5.83;;;;;;;;;;5094168;28;20501;-51
2020/12/25 01:39:06;;;;;;;9.07;6.40;;;;;;;;;;5091016;28;20483;-56
2020/12/25 01:41:32;;;;;;;7.80;4.77;;;;;;;;;;5094260;28;20024;-52
2020/12/25 01:43:57;;;;;;;8.23;5.63;;;;;;;;;;5094516;28;20024;-54
2020/12/25 01:46:23;;;;;;;8.77;6.00;;;;;;;;;;5093802;28;20026;-52
2020/12/25 01:48:48;;;;;;;8.60;6.40;;;;;;;;;;5091147;28;20032;-56
2020/12/25 01:51:14;;;;;;;9.83;6.50;;;;;;;;;;5094037;28;20016;-55
2020/12/25 01:53:40;;;;;;;8.67;5.97;;;;;;;;;;5093984;28;20008;-54
2020/12/25 01:56:05;;;;;;;9.30;6.63;;;;;;;;;;5092726;28;20046;-54
2020/12/25 01:58:32;;;;;;;8.10;5.93;;;;;;;;;;5090889;28;20024;-55
2020/12/25 02:00:58;;;;;;;10.33;6.70;;;;;;;;;;5093906;28;20047;-56
2020/12/25 02:03:23;;;;;;;9.60;6.20;;;;;;;;;;5093204;28;20619;-56
2020/12/25 02:05:48;;;;;;;11.53;7.10;;;;;;;;;;5093738;28;20526;-55
2020/12/25 02:08:14;;;;;;;9.00;6.23;;;;;;;;;;5092458;28;20023;-57
2020/12/25 02:10:40;;;;;;;9.47;6.60;;;;;;;;;;5092405;28;20087;-56
2020/12/25 02:13:05;;;;;;;10.57;7.37;;;;;;;;;;5092804;28;20020;-56
2020/12/25 02:15:31;;;;;;;12.10;8.00;;;;;;;;;;5093902;28;20462;-56
2020/12/25 02:17:56;;;;;;;9.93;7.27;;;;;;;;;;5092625;28;20020;-56
2020/12/25 02:20:21;;;;;;;11.87;7.60;;;;;;;;;;5090654;28;20027;-56
2020/12/25 02:22:46;;;;;;;12.00;6.87;;;;;;;;;;5092828;28;20072;-55
2020/12/25 02:25:12;;;;;;;12.37;7.60;;;;;;;;;;5093403;28;20071;-56
2020/12/25 02:27:37;;;;;;;10.00;6.70;;;;;;;;;;5093354;28;20073;-55
2020/12/25 02:30:03;;;;;;;8.60;6.07;;;;;;;;;;5090817;28;20016;-54
2020/12/25 02:32:28;;;;;;;9.00;6.23;;;;;;;;;;5085755;28;20017;-52
2020/12/25 02:34:54;;;;;;;9.53;6.30;;;;;;;;;;5094063;28;20043;-55
2020/12/25 02:37:19;;;;;;;9.77;6.10;;;;;;;;;;5093058;28;20493;-55
2020/12/25 02:39:44;;;;;;;9.47;6.07;;;;;;;;;;5089978;28;20419;-55
2020/12/25 02:42:10;;;;;;;9.37;6.40;;;;;;;;;;5081271;28;20020;-55
2020/12/25 02:44:35;;;;;;;9.10;6.20;;;;;;;;;;5093369;28;20020;-56
2020/12/25 02:47:01;;;;;;;10.17;6.67;;;;;;;;;;5093642;28;20023;-56
2020/12/25 02:49:26;;;;;;;10.33;6.30;;;;;;;;;;5089705;28;20035;-55
2020/12/25 02:51:52;;;;;;;9.27;6.27;;;;;;;;;;5093018;28;20020;-54
2020/12/25 02:54:17;;;;;;;9.23;6.27;;;;;;;;;;5092729;28;20035;-55
2020/12/25 02:56:43;;;;;;;11.40;7.03;;;;;;;;;;5093219;28;20467;-54
2020/12/25 02:59:08;;;;;;;12.00;7.67;;;;;;;;;;5088331;28;20020;-56
2020/12/25 03:01:33;;;;;;;12.23;8.53;;;;;;;;;;5092756;28;20020;-55
2020/12/25 03:03:58;;;;;;;10.10;6.60;;;;;;;;;;5092834;28;20020;-56
2020/12/25 03:06:24;;;;;;;8.37;5.90;;;;;;;;;;5092551;28;20292;-57
2020/12/25 03:08:49;;;;;;;9.83;7.07;;;;;;;;;;5089324;28;20016;-56
2020/12/25 03:11:14;;;;;;;9.53;6.37;;;;;;;;;;5092603;28;20433;-55
2020/12/25 03:13:39;;;;;;;9.20;6.57;;;;;;;;;;5092438;28;20017;-56
2020/12/25 03:16:05;;;;;;;10.97;7.20;;;;;;;;;;5092740;28;20016;-54
2020/12/25 03:18:30;;;;;;;9.60;7.20;;;;;;;;;;5089525;28;20013;-56
2020/12/25 03:20:55;;;;;;;12.90;8.37;;;;;;;;;;5092642;28;20024;-57
2020/12/25 03:23:21;;;;;;;11.30;6.97;;;;;;;;;;5083168;28;20743;-56
2020/12/25 03:25:46;;;;;;;10.67;6.77;;;;;;;;;;5072548;28;20077;-55
2020/12/25 03:28:12;;;;;;;11.67;7.10;;;;;;;;;;5078420;28;20047;-55
2020/12/25 03:30:37;;;;;;;11.47;7.43;;;;;;;;;;5086741;28;20012;-52
2020/12/25 03:33:02;;;;;;;11.33;7.70;;;;;;;;;;5091962;28;20101;-54
2020/12/25 03:35:27;;;;;;;12.33;7.97;;;;;;;;;;5092433;28;20378;-55
2020/12/25 03:37:53;;;;;;;13.80;9.03;;;;;;;;;;5092339;28;20115;-55
2020/12/25 03:40:18;;;;;;;13.97;8.73;;;;;;;;;;5088977;28;20060;-56
2020/12/25 03:42:43;;;;;;;13.73;8.53;;;;;;;;;;5091925;28;20027;-55
2020/12/25 03:45:08;;;;;;;15.23;9.03;;;;;;;;;;5092356;28;20421;-55
2020/12/25 03:47:34;;;;;;;11.10;7.27;;;;;;;;;;5092080;28;20470;-52
2020/12/25 03:49:59;;;;;;;11.37;6.80;;;;;;;;;;5089341;28;20031;-50
2020/12/25 03:52:24;;;;;;;9.20;6.10;;;;;;;;;;5091607;28;20055;-55
2020/12/25 03:54:50;;;;;;;9.97;5.67;;;;;;;;;;5076173;28;20516;-53
2020/12/25 03:57:15;;;;;;;4.47;2.27;;;;;;;;;;5092293;28;20498;-54
2020/12/25 03:59:40;;;;;;;3.87;2.37;;;;;;;;;;5093393;28;20008;-54
2020/12/25 04:02:05;;;;;;;8.37;5.50;;;;;;;;;;5096108;28;20035;-55
2020/12/25 04:04:31;;;;;;;6.53;4.03;;;;;;;;;;5096002;28;20020;-51
2020/12/25 04:06:56;;;;;;;10.70;5.83;;;;;;;;;;5096498;28;20080;-55
2020/12/25 04:09:21;;;;;;;10.13;6.60;;;;;;;;;;5088403;28;20020;-53
2020/12/25 04:11:48;;;;;;;11.50;6.77;;;;;;;;;;5096128;28;20020;-54
2020/12/25 04:14:14;;;;;;;10.23;6.67;;;;;;;;;;5096621;28;20024;-51
2020/12/25 04:16:39;;;;;;;10.20;6.40;;;;;;;;;;5095806;28;20023;-54
2020/12/25 04:19:04;;;;;;;12.47;6.90;;;;;;;;;;5092825;28;20020;-54
2020/12/25 04:21:29;;;;;;;13.43;7.83;;;;;;;;;;5096558;28;20035;-57
2020/12/25 04:23:55;;;;;;;10.43;6.47;;;;;;;;;;5094033;28;20051;-54
2020/12/25 04:26:20;;;;;;;6.80;5.03;;;;;;;;;;5096019;28;20058;-54
2020/12/25 04:28:45;;;;;;;6.50;4.50;;;;;;;;;;5091402;28;20521;-56
2020/12/25 04:31:10;;;;;;;7.37;4.23;;;;;;;;;;5089097;28;20019;-52
2020/12/25 04:33:36;;;;;;;5.33;3.47;;;;;;;;;;5095569;28;20471;-52
2020/12/25 04:36:01;;;;;;;4.73;3.53;;;;;;;;;;5096020;28;20062;-54
2020/12/25 04:38:26;;;;;;;5.23;3.70;;;;;;;;;;5092614;28;20165;-55
2020/12/25 04:40:52;;;;;;;5.30;3.40;;;;;;;;;;5095864;28;20059;-52
2020/12/25 04:43:17;;;;;;;5.67;3.70;;;;;;;;;;5084067;28;20064;-49
2020/12/25 04:45:42;;;;;;;6.47;3.03;;;;;;;;;;5085073;28;20028;-56
2020/12/25 04:48:08;;;;;;;4.30;3.30;;;;;;;;;;5094733;28;20016;-54
2020/12/25 04:50:33;;;;;;;5.20;3.17;;;;;;;;;;5093684;28;20027;-55
2020/12/25 04:52:59;;;;;;;5.17;3.03;;;;;;;;;;5094715;28;20035;-57
2020/12/25 04:55:24;;;;;;;6.13;3.43;;;;;;;;;;5095435;28;20034;-51
2020/12/25 04:57:50;;;;;;;6.53;4.03;;;;;;;;;;5094920;28;20020;-55
2020/12/25 05:00:22;;;;;;;5.30;3.80;;;;;;;;;;5092274;28;20024;-54
2020/12/25 05:02:48;;;;;;;3.50;2.50;;;;;;;;;;5095071;28;20027;-56
2020/12/25 05:05:14;;;;;;;4.93;2.83;;;;;;;;;;5095025;28;20425;-54
2020/12/25 05:07:40;;;;;;;4.47;3.20;;;;;;;;;;5094733;28;20020;-54
2020/12/25 05:10:08;;;;;;;5.30;2.20;;;;;;;;;;5089347;28;20031;-55
2020/12/25 05:12:34;;;;;;;4.00;2.57;;;;;;;;;;5095121;28;20024;-55
2020/12/25 05:15:03;;;;;;;3.30;2.33;;;;;;;;;;5095113;28;20455;-54
2020/12/25 05:17:30;;;;;;;4.50;2.90;;;;;;;;;;5095093;28;20027;-55
2020/12/25 05:19:55;;;;;;;3.87;2.20;;;;;;;;;;5092453;28;20394;-55
2020/12/25 05:22:22;;;;;;;4.33;2.03;;;;;;;;;;5094113;28;20020;-50
2020/12/25 05:24:47;;;;;;;2.53;1.83;;;;;;;;;;5094720;28;20048;-55
2020/12/25 05:27:13;;;;;;;3.30;1.83;;;;;;;;;;5094200;28;20023;-56
2020/12/25 05:29:39;;;;;;;2.63;1.57;;;;;;;;;;5088076;28;20017;-55
2020/12/25 05:32:04;;;;;;;3.30;2.50;;;;;;;;;;5091262;28;20498;-53
2020/12/25 05:34:32;;;;;;;2.87;1.73;;;;;;;;;;5094283;28;20153;-56
2020/12/25 05:37:00;;;;;;;2.57;1.97;;;;;;;;;;5075648;28;20024;-54
2020/12/25 05:39:29;;;;;;;3.80;2.17;;;;;;;;;;5091175;28;20110;-53
2020/12/25 05:41:58;;;;;;;3.57;2.27;;;;;;;;;;5094248;28;20028;-53
2020/12/25 05:44:24;;;;;;;3.17;1.97;;;;;;;;;;5094039;28;20036;-54
2020/12/25 05:46:49;;;;;;;3.70;1.83;;;;;;;;;;5092982;28;20034;-53
2020/12/25 05:49:15;;;;;;;2.83;2.00;;;;;;;;;;5091236;28;20103;-55
2020/12/25 05:51:47;;;;;;;2.43;2.00;;;;;;;;;;5093998;28;20043;-55
2020/12/25 05:54:15;;;;;;;5.13;2.40;;;;;;;;;;5088921;28;20117;-55
2020/12/25 05:56:40;;;;;;;4.50;2.53;;;;;;;;;;5076171;28;20390;-54
2020/12/25 05:59:06;;;;;;;3.60;2.10;;;;;;;;;;5090881;28;20024;-52
2020/12/25 06:01:33;;;;;;;3.73;2.60;;;;;;;;;;5094154;28;20030;-53
2020/12/25 06:03:58;;;;;;;4.03;2.40;;;;;;;;;;5087339;28;20028;-51
2020/12/25 06:06:28;;;;;;;5.43;3.40;;;;;;;;;;5093725;28;20024;-54
2020/12/25 06:09:04;;;;;;;3.90;2.60;;;;;;;;;;5090872;28;20012;-53
2020/12/25 06:11:30;;;;;;;4.57;3.40;;;;;;;;;;5094052;28;20020;-55
2020/12/25 06:13:56;;;;;;;3.23;2.83;;;;;;;;;;5093418;28;20542;-52
2020/12/25 06:16:22;;;;;;;3.93;3.00;;;;;;;;;;5093725;28;20027;-55
2020/12/25 06:18:56;;;;;;;6.20;3.10;;;;;;;;;;5090683;28;20223;-55
2020/12/25 06:21:37;;;;;;;3.40;2.58;;;;;;;;;;5092896;28;20032;-55
2020/12/25 06:24:03;;;;;;;4.40;2.40;;;;;;;;;;5093408;28;20043;-54
2020/12/25 06:26:29;;;;;;;3.57;2.40;;;;;;;;;;5093421;28;20492;-56
2020/12/25 06:28:55;;;;;;;2.80;2.40;;;;;;;;;;5088613;28;20419;-50
2020/12/25 06:31:43;;;;;;;2.13;1.50;;;;;;;;;;5077464;28;20019;-53
2020/12/25 06:34:09;;;;;;;2.60;1.27;;;;;;;;;;5073713;28;20447;-55
2020/12/25 06:36:34;;;;;;;2.40;1.60;;;;;;;;;;5093853;28;20104;-55
2020/12/25 06:39:03;;;;;;;3.00;1.87;;;;;;;;;;5087800;28;20394;-57
2020/12/25 06:41:28;;;;;;;3.20;1.87;;;;;;;;;;5093540;28;20038;-55
2020/12/25 06:43:54;;;;;;;5.97;2.50;;;;;;;;;;5087495;28;20028;-55
2020/12/25 06:46:29;;;;;;;2.83;1.83;;;;;;;;;;5093079;28;20032;-54
2020/12/25 06:48:59;;;;;;;2.95;1.83;;;;;;;;;;5090331;28;20174;-56
2020/12/25 06:51:26;;;;;;;2.63;1.53;;;;;;;;;;5091955;28;20448;-52
2020/12/25 06:53:54;;;;;;;2.67;1.53;;;;;;;;;;5091098;28;20410;-51
2020/12/25 06:56:20;;;;;;;1.73;1.40;;;;;;;;;;5092707;28;20027;-55
2020/12/25 06:58:50;;;;;;;3.53;2.07;;;;;;;;;;5089434;28;20677;-55
2020/12/25 07:01:16;;;;;;;2.63;1.80;;;;;;;;;;5093121;28;20060;-55
2020/12/25 07:03:42;;;;;;;6.33;2.30;;;;;;;;;;5093078;28;20073;-55
2020/12/25 07:06:11;;;;;;;3.93;2.30;;;;;;;;;;5092850;28;20020;-54
2020/12/25 07:08:44;;;;;;;5.03;2.23;;;;;;;;;;5089417;28;20031;-54
2020/12/25 07:11:10;;;;;;;4.30;2.17;;;;;;;;;;5092279;28;20020;-55
2020/12/25 07:13:36;;;;;;;3.80;2.23;;;;;;;;;;5092345;28;20043;-51
2020/12/25 07:16:01;;;;;;;5.00;2.10;;;;;;;;;;5092815;28;20405;-56
2020/12/25 07:18:27;;;;;;;5.10;2.13;;;;;;;;;;5084654;28;20024;-54
2020/12/25 07:20:55;;;;;;;3.30;1.73;;;;;;;;;;5079287;28;20024;-53
2020/12/25 07:23:20;;;;;;;3.03;2.13;;;;;;;;;;5078479;28;20111;-53
2020/12/25 07:25:46;;;;;;;2.77;1.60;;;;;;;;;;5085744;28;20111;-56
2020/12/25 07:28:11;;;;;;;2.73;1.67;;;;;;;;;;5091027;28;20008;-55
2020/12/25 07:30:36;;;;;;;2.80;1.70;;;;;;;;;;5085944;28;20009;-53
2020/12/25 07:33:05;;;;;;;2.80;1.90;;;;;;;;;;5091763;28;20103;-56
2020/12/25 07:35:30;;;;;;;6.07;2.60;;;;;;;;;;5092161;28;20027;-54
2020/12/25 07:37:56;;;;;;;2.00;1.90;;;;;;;;;;5091905;28;20020;-53
2020/12/25 07:40:21;;;;;;;3.10;2.50;;;;;;;;;;5089086;28;20020;-56
2020/12/25 07:42:46;;;;;;;2.63;1.77;;;;;;;;;;5092094;28;20066;-56
2020/12/25 07:45:12;;;;;;;4.23;2.47;;;;;;;;;;5091827;28;20020;-53
2020/12/25 07:47:38;;;;;;;2.13;1.67;;;;;;;;;;5091682;28;20020;-57
2020/12/25 07:50:03;;;;;;;3.60;1.53;;;;;;;;;;5089489;28;20489;-54
2020/12/25 07:52:29;;;;;;;4.57;2.33;;;;;;;;;;5090850;28;20016;-55
2020/12/25 07:54:54;;;;;;;2.33;1.80;;;;;;;;;;5089489;28;20047;-55
2020/12/25 07:57:19;;;;;;;3.10;1.83;;;;;;;;;;5080952;28;20021;-56
2020/12/25 07:59:46;;;;;;;2.23;2.03;;;;;;;;;;5088391;28;20024;-54
2020/12/25 08:02:12;;;;;;;3.00;2.40;;;;;;;;;;5092106;28;20016;-54
2020/12/25 08:04:40;;;;;;;3.10;2.50;;;;;;;;;;5091461;28;20081;-54
2020/12/25 08:07:05;;;;;;;3.20;2.77;;;;;;;;;;5091983;28;20042;-54
2020/12/25 08:09:30;;;;;;;2.70;2.10;;;;;;;;;;5087677;28;20451;-50
2020/12/25 08:11:59;;;;;;;3.10;1.70;;;;;;;;;;5091419;28;20074;-53
2020/12/25 08:14:24;;;;;;;3.17;2.23;;;;;;;;;;5091397;28;20016;-54
2020/12/25 08:16:50;;;;;;;2.93;2.63;;;;;;;;;;5091294;28;20031;-56
2020/12/25 08:19:17;;;;;;;2.47;1.57;;;;;;;;;;5088739;28;20103;-50
2020/12/25 08:21:42;;;;;;;4.03;2.17;;;;;;;;;;5091714;28;20024;-55
2020/12/25 08:24:09;;;;;;;4.53;1.97;;;;;;;;;;5091180;28;20051;-54
2020/12/25 08:26:36;;;;;;;6.10;1.97;;;;;;;;;;5091622;28;20156;-55
2020/12/25 08:29:01;;;;;;;2.07;1.40;;;;;;;;;;5086290;28;20386;-51
2020/12/25 08:31:33;;;;;;;1.70;1.37;;;;;;;;;;5078492;28;20019;-50
2020/12/25 08:33:58;;;;;;;3.97;1.80;;;;;;;;;;5071671;28;20016;-53
2020/12/25 08:36:24;;;;;;;3.70;1.50;;;;;;;;;;5089594;28;20028;-52
2020/12/25 08:38:50;;;;;;;2.30;1.20;;;;;;;;;;5087952;28;20398;-50
2020/12/25 08:41:15;;;;;;;2.50;1.30;;;;;;;;;;5073178;28;20530;-54
2020/12/25 08:43:40;;;;;;;1.70;1.00;;;;;;;;;;5083150;28;20035;-52
2020/12/25 08:46:06;;;;;;;1.33;0.90;;;;;;;;;;5091648;28;20028;-55
2020/12/25 08:48:32;;;;;;;1.63;0.70;;;;;;;;;;5090712;28;20059;-51
2020/12/25 08:51:08;;;;;;;2.97;0.90;;;;;;;;;;5094166;28;20386;-51
2020/12/25 08:53:33;;;;;;;;;;;;;;;;;;5092467;28;20028;-54
2020/12/25 08:56:11;;;;;;;1.13;1.00;;;;;;;;;;5092532;28;19908;-57
2020/12/25 08:58:37;;;;;;;1.40;0.90;;;;;;;;;;5079305;28;20457;-55
2020/12/25 09:01:03;;;;;;;2.07;1.00;;;;;;;;;;5090055;28;20024;-55
2020/12/25 09:03:39;;;;;;;2.07;1.23;;;;;;;;;;5087530;28;20024;-52
2020/12/25 09:06:04;;;;;;;2.85;0.60;;;;;;;;;;5092085;28;20039;-52
2020/12/25 09:08:30;;;;;;;2.70;0.70;;;;;;;;;;5085154;28;20035;-55
2020/12/25 09:10:55;;;;;;;2.97;1.07;;;;;;;;;;5094582;28;20024;-56
2020/12/25 09:13:20;;;;;;;2.57;0.60;;;;;;;;;;5094150;28;20099;-54
2020/12/25 09:15:45;;;;;;;3.73;0.60;;;;;;;;;;5094104;28;20058;-55
2020/12/25 09:18:10;;;;;;;1.70;0.80;;;;;;;;;;5093565;28;20107;-55
2020/12/25 09:20:36;;;;;;;2.00;0.90;;;;;;;;;;5090925;28;20102;-54
2020/12/25 09:23:01;;;;;;;4.53;1.87;;;;;;;;;;5094424;28;20055;-54
2020/12/25 09:25:26;;;;;;;6.13;2.27;;;;;;;;;;5093615;28;20126;-55
2020/12/25 09:27:51;;;;;;;3.63;1.07;;;;;;;;;;5081869;28;20103;-54
2020/12/25 09:30:16;;;;;;;1.07;0.60;;;;;;;;;;5084184;28;20362;-53
2020/12/25 09:32:42;;;;;;;2.10;1.07;;;;;;;;;;5093687;28;20027;-55
2020/12/25 09:35:07;;;;;;;2.17;1.10;;;;;;;;;;5094102;28;20038;-55
2020/12/25 09:37:32;;;;;;;2.00;1.10;;;;;;;;;;5094183;28;20012;-54
2020/12/25 09:39:57;;;;;;;4.50;1.47;;;;;;;;;;5082132;28;20148;-50
2020/12/25 09:42:23;;;;;;;2.30;1.40;;;;;;;;;;5089758;28;20667;-54
2020/12/25 09:44:48;;;;;;;4.73;2.90;;;;;;;;;;5093621;28;20490;-55
2020/12/25 09:47:17;;;;;;;3.80;1.60;;;;;;;;;;5093315;28;20024;-55
2020/12/25 09:49:42;;;;;;;3.07;0.90;;;;;;;;;;5090965;28;20024;-53
2020/12/25 09:52:07;;;;;;;1.80;0.73;;;;;;;;;;5093783;28;20352;-52
2020/12/25 09:54:32;;;;;;;3.37;1.33;;;;;;;;;;5090496;28;20517;-53
2020/12/25 09:56:58;;;;;;;4.97;2.03;;;;;;;;;;5084537;28;20036;-52
2020/12/25 09:59:23;;;;;;;4.33;1.10;;;;;;;;;;5090656;28;20587;-56
2020/12/25 10:01:49;;;;;;;2.20;0.80;;;;;;;;;;5091284;28;20073;-54
2020/12/25 10:04:14;;;;;;;1.70;0.60;;;;;;;;;;5073780;28;20033;-53
2020/12/25 10:06:39;;;;;;;0.60;0.37;;;;;;;;;;5090469;28;20024;-55
2020/12/25 10:09:05;;;;;;;3.27;0.80;;;;;;;;;;5089428;28;20023;-53
2020/12/25 10:11:30;;;;;;;4.13;1.67;;;;;;;;;;5093763;28;20016;-55
2020/12/25 10:13:55;;;;;;;0.87;0.37;;;;;;;;;;5093560;28;20019;-55
2020/12/25 10:16:21;;;;;;;3.83;0.63;;;;;;;;;;5092685;28;20016;-53
2020/12/25 10:18:46;;;;;;;2.10;0.80;;;;;;;;;;5088566;28;20130;-53
2020/12/25 10:21:15;;;;;;;4.93;2.20;;;;;;;;;;5092980;28;20474;-55
2020/12/25 10:23:40;;;;;;;5.33;2.73;;;;;;;;;;5079879;28;20503;-54
2020/12/25 10:26:05;;;;;;;4.00;1.90;;;;;;;;;;5087738;28;20020;-55
2020/12/25 10:28:31;;;;;;;0.90;0.40;;;;;;;;;;5079880;28;20013;-52
2020/12/25 10:30:56;;;;;;;1.77;0.30;;;;;;;;;;5091509;28;20024;-51
2020/12/25 10:33:21;;;;;;;1.50;0.60;;;;;;;;;;5093457;28;20016;-56
2020/12/25 10:35:46;;;;;;;2.50;0.77;;;;;;;;;;5093098;28;20509;-53
2020/12/25 10:38:11;;;;;;;2.70;0.60;;;;;;;;;;5091831;28;20074;-52
2020/12/25 10:40:37;;;;;;;3.17;0.90;;;;;;;;;;5089867;28;20470;-53
2020/12/25 10:43:02;;;;;;;1.97;0.50;;;;;;;;;;5093354;28;20027;-53
2020/12/25 10:45:27;;;;;;;1.47;0.60;;;;;;;;;;5093153;28;20066;-56
2020/12/25 10:47:52;;;;;;;1.90;0.20;;;;;;;;;;5092888;28;20027;-54
2020/12/25 10:50:18;;;;;;;0.73;0.30;;;;;;;;;;5089809;28;20019;-54
2020/12/25 10:52:43;;;;;;;0.83;0.40;;;;;;;;;;5092876;28;20024;-55
2020/12/25 10:55:08;;;;;;;1.90;0.50;;;;;;;;;;5093069;28;20062;-54
2020/12/25 10:57:33;;;;;;;1.23;0.40;;;;;;;;;;5092481;28;20020;-56
2020/12/25 10:59:58;;;;;;;1.17;0.20;;;;;;;;;;5089341;28;20020;-56
2020/12/25 11:02:24;;;;;;;1.00;0.40;;;;;;;;;;5092868;28;20020;-51
2020/12/25 11:04:49;;;;;;;1.60;0.50;;;;;;;;;;5090723;28;20483;-53
2020/12/25 11:07:14;;;;;;;1.70;0.30;;;;;;;;;;5088666;28;20020;-53
2020/12/25 11:09:39;;;;;;;1.33;0.30;;;;;;;;;;5089565;28;20061;-55
2020/12/25 11:12:04;;;;;;;0.90;0.30;;;;;;;;;;5092825;28;20060;-53
2020/12/25 11:14:30;;;;;;;1.00;0.40;;;;;;;;;;5093100;28;20050;-54
2020/12/25 11:16:55;;;;;;;2.00;0.40;;;;;;;;;;5087147;28;20103;-56
2020/12/25 11:19:22;;;;;;;1.13;0.40;;;;;;;;;;5088977;28;20062;-56
2020/12/25 11:21:47;;;;;;;1.87;0.30;;;;;;;;;;5091599;28;20102;-53
2020/12/25 11:24:13;;;;;;;2.20;0.93;;;;;;;;;;5090536;28;20186;-54
2020/12/25 11:26:38;;;;;;;1.90;0.63;;;;;;;;;;5092073;28;20395;-55
2020/12/25 11:29:05;;;;;;;2.30;0.60;;;;;;;;;;5089395;28;20474;-56
2020/12/25 11:31:30;;;;;;;1.47;0.90;;;;;;;;;;5092501;28;20016;-55
2020/12/25 11:33:55;;;;;;;1.33;0.40;;;;;;;;;;5088845;28;20016;-57
2020/12/25 11:36:22;;;;;;;0.90;0.30;;;;;;;;;;5092056;28;20020;-55
2020/12/25 11:38:48;;;;;;;2.87;0.40;;;;;;;;;;5085969;28;20043;-56
2020/12/25 11:41:14;;;;;;;1.57;0.37;;;;;;;;;;5091783;28;20117;-53
2020/12/25 11:43:40;;;;;;;1.17;0.20;;;;;;;;;;5090205;28;20024;-53
2020/12/25 11:46:05;;;;;;;0.73;0.40;;;;;;;;;;5077277;28;20027;-52
2020/12/25 11:48:30;;;;;;;0.10;0.00;;;;;;;;;;5069116;28;20021;-53
2020/12/25 11:50:56;;;;;;;1.57;0.20;;;;;;;;;;5084866;28;20396;-51
2020/12/25 11:53:21;;;;;;;1.70;0.40;;;;;;;;;;5091450;28;20021;-55
2020/12/25 11:55:47;;;;;;;3.60;0.30;;;;;;;;;;5080597;28;20036;-56
2020/12/25 11:58:12;;;;;;;1.80;0.23;;;;;;;;;;5070433;28;20020;-55
2020/12/25 12:00:38;;;;;;;3.27;0.60;;;;;;;;;;5084520;28;20020;-52
2020/12/25 12:03:03;;;;;;;1.77;0.30;;;;;;;;;;5090349;28;20048;-56
2020/12/25 12:05:28;;;;;;;0.30;0.20;;;;;;;;;;5090419;28;20382;-52
2020/12/25 12:07:53;;;;;;;1.03;0.30;;;;;;;;;;5083028;28;20064;-51
2020/12/25 12:10:19;;;;;;;1.70;0.50;;;;;;;;;;5088151;28;20379;-51
2020/12/25 12:12:44;;;;;;;1.40;0.50;;;;;;;;;;5091917;28;20020;-52
2020/12/25 12:15:09;;;;;;;0.77;0.47;;;;;;;;;;5091712;28;20032;-53
2020/12/25 12:17:34;;;;;;;3.37;0.50;;;;;;;;;;5091293;28;20043;-53
2020/12/25 12:19:59;;;;;;;1.13;0.50;;;;;;;;;;5085623;28;20099;-48
2020/12/25 12:22:25;;;;;;;0.70;0.30;;;;;;;;;;5095573;28;20031;-52
2020/12/25 12:24:50;;;;;;;2.60;0.77;;;;;;;;;;5095231;28;20075;-54
2020/12/25 12:27:15;;;;;;;1.37;0.43;;;;;;;;;;5089131;28;20020;-55
2020/12/25 12:29:40;;;;;;;0.57;0.37;;;;;;;;;;5085013;28;20019;-53
2020/12/25 12:32:05;;;;;;;0.40;0.30;;;;;;;;;;5083496;28;20016;-54
2020/12/25 12:34:31;;;;;;;1.17;0.30;;;;;;;;;;5095967;28;20012;-54
2020/12/25 12:36:56;;;;;;;0.83;0.30;;;;;;;;;;5095240;28;20020;-55
2020/12/25 12:39:21;;;;;;;0.97;0.30;;;;;;;;;;5091835;28;20020;-55
2020/12/25 12:41:47;;;;;;;2.07;0.40;;;;;;;;;;5095299;28;20028;-55
2020/12/25 12:44:12;;;;;;;2.67;0.50;;;;;;;;;;5088648;28;20047;-56
2020/12/25 12:46:37;;;;;;;0.60;0.50;;;;;;;;;;5083346;28;20057;-56
2020/12/25 12:49:02;;;;;;;0.70;0.20;;;;;;;;;;5092492;28;20016;-53
2020/12/25 12:51:28;;;;;;;0.90;0.23;;;;;;;;;;5095050;28;20031;-56
2020/12/25 12:53:53;;;;;;;1.10;0.37;;;;;;;;;;5094638;28;20022;-55
2020/12/25 12:56:18;;;;;;;1.07;0.40;;;;;;;;;;5094840;28;20098;-55
2020/12/25 12:58:43;;;;;;;0.70;0.40;;;;;;;;;;5086738;28;20021;-56
2020/12/25 13:01:10;;;;;;;0.97;0.40;;;;;;;;;;5094975;28;20020;-56
2020/12/25 13:03:35;;;;;;;1.13;0.30;;;;;;;;;;5095352;28;20035;-56
2020/12/25 13:06:00;;;;;;;1.13;0.40;;;;;;;;;;5094995;28;20016;-52
2020/12/25 13:08:25;;;;;;;0.50;0.30;;;;;;;;;;5091566;28;20230;-55
2020/12/25 13:10:51;;;;;;;3.17;0.47;;;;;;;;;;5093997;28;20028;-55
2020/12/25 13:13:16;;;;;;;1.27;0.60;;;;;;;;;;5093005;28;20085;-56
2020/12/25 13:15:42;;;;;;;1.50;0.40;;;;;;;;;;5085654;28;20426;-55
2020/12/25 13:18:07;;;;;;;1.87;0.40;;;;;;;;;;5081429;28;20378;-55
2020/12/25 13:20:33;;;;;;;2.50;0.50;;;;;;;;;;5092152;28;20020;-54
2020/12/25 13:22:58;;;;;;;2.53;0.60;;;;;;;;;;5094004;28;20028;-55
2020/12/25 13:25:23;;;;;;;2.47;0.40;;;;;;;;;;5094011;28;20052;-56
2020/12/25 13:27:48;;;;;;;0.60;0.30;;;;;;;;;;5094083;28;20016;-53
2020/12/25 13:30:13;;;;;;;1.23;0.50;;;;;;;;;;5089781;28;20061;-56
2020/12/25 13:32:39;;;;;;;1.50;0.57;;;;;;;;;;5088312;28;20058;-56
2020/12/25 13:35:04;;;;;;;1.83;0.40;;;;;;;;;;5088430;28;20027;-55
2020/12/25 13:37:29;;;;;;;1.87;0.63;;;;;;;;;;5087140;28;20054;-55
2020/12/25 13:39:54;;;;;;;1.10;0.33;;;;;;;;;;5089971;28;20398;-54
2020/12/25 13:42:20;;;;;;;1.20;0.57;;;;;;;;;;5091054;28;20028;-56
2020/12/25 13:44:46;;;;;;;1.50;0.40;;;;;;;;;;5086431;28;20016;-57
2020/12/25 13:47:12;;;;;;;1.53;0.50;;;;;;;;;;5110687;28;20023;-57
2020/12/25 13:49:37;;;;;;;2.20;0.47;;;;;;;;;;5093833;28;20415;-55
2020/12/25 13:52:02;;;;;;;2.87;0.93;;;;;;;;;;5094413;28;20034;-53
2020/12/25 13:54:27;;;;;;;2.80;0.77;;;;;;;;;;5094103;28;20012;-56
2020/12/25 13:56:54;;;;;;;1.00;0.60;;;;;;;;;;5093625;28;20020;-57
2020/12/25 13:59:20;;;;;;;1.23;0.30;;;;;;;;;;5090312;28;20129;-53
2020/12/25 14:01:45;;;;;;;0.93;0.40;;;;;;;;;;5093342;28;20054;-55
2020/12/25 14:04:10;;;;;;;3.60;0.67;;;;;;;;;;5091001;28;20027;-56
2020/12/25 14:06:35;;;;;;;0.80;0.50;;;;;;;;;;5093324;28;20091;-53
2020/12/25 14:09:01;;;;;;;2.77;0.50;;;;;;;;;;5090122;28;20016;-57
2020/12/25 14:11:26;;;;;;;2.77;0.30;;;;;;;;;;5093640;28;20095;-57
2020/12/25 14:13:51;;;;;;;1.60;0.73;;;;;;;;;;5093805;28;20016;-57
2020/12/25 14:16:17;;;;;;;1.93;0.80;;;;;;;;;;5089336;28;20020;-56
2020/12/25 14:18:43;;;;;;;4.57;1.27;;;;;;;;;;5086694;28;20079;-54
2020/12/25 14:21:08;;;;;;;0.70;0.67;;;;;;;;;;5091121;28;20035;-54
2020/12/25 14:23:34;;;;;;;0.97;0.83;;;;;;;;;;5092981;28;20052;-53
2020/12/25 14:25:59;;;;;;;0.80;0.60;;;;;;;;;;5093414;28;20019;-56
2020/12/25 14:28:24;;;;;;;1.67;0.97;;;;;;;;;;5088471;28;20212;-55
2020/12/25 14:30:49;;;;;;;1.00;0.40;;;;;;;;;;5080687;28;20117;-56
2020/12/25 14:33:15;;;;;;;2.43;1.07;;;;;;;;;;5091237;28;20028;-56